Terminal Aerodrome Forecast
Issued by NWS

Home | Current Version | Previous Version | Text Only | Print | Product List | Glossary On
Versions: 1 2 3 4 5 6 7 8 9 10 11 12 13 14 15 16 17
000
FTUS43 KDTX 240900 AAA
TAFDET
TAF AMD
KDET 240900Z 2409/2506 14004KT P6SM SCT070 BKN150
     FM241000 14004KT P6SM -SHRA SCT060 BKN080
      TEMPO 2410/2411 5SM -SHRA BR OVC050
     FM241100 17005KT 6SM -SHRA BR SCT050 OVC080
     FM241300 20007KT P6SM -SHRA BKN040 OVC080
      TEMPO 2415/2418 2SM TSRA OVC035CB
     FM241900 22013G20KT P6SM SCT050 BKN100
     FM250100 20007KT P6SM BKN100 OVC250=

USA.gov is the U.S. government's official web portal to all federal, state and local government web resources and services.